sensor_id;sensor_type;location;lat;lon;timestamp;P1;durP1;ratioP1;P2;durP2;ratioP2
13685;SDS011;6915;48.296;8.874;2022-10-19T00:01:06;5.47;;;3.20;;
13685;SDS011;6915;48.296;8.874;2022-10-19T00:03:34;4.47;;;2.80;;
13685;SDS011;6915;48.296;8.874;2022-10-19T00:06:08;5.30;;;2.87;;
13685;SDS011;6915;48.296;8.874;2022-10-19T00:08:37;4.73;;;3.00;;
13685;SDS011;6915;48.296;8.874;2022-10-19T00:11:04;4.40;;;3.17;;
13685;SDS011;6915;48.296;8.874;2022-10-19T00:13:31;3.40;;;3.10;;
13685;SDS011;6915;48.296;8.874;2022-10-19T00:15:57;3.40;;;3.10;;
13685;SDS011;6915;48.296;8.874;2022-10-19T00:18:26;8.47;;;3.60;;
13685;SDS011;6915;48.296;8.874;2022-10-19T00:21:00;4.60;;;3.10;;
13685;SDS011;6915;48.296;8.874;2022-10-19T00:23:28;7.77;;;3.33;;
13685;SDS011;6915;48.296;8.874;2022-10-19T00:25:55;4.87;;;3.10;;
13685;SDS011;6915;48.296;8.874;2022-10-19T00:28:22;3.53;;;3.20;;
13685;SDS011;6915;48.296;8.874;2022-10-19T00:30:49;3.70;;;3.40;;
13685;SDS011;6915;48.296;8.874;2022-10-19T00:33:16;4.00;;;3.23;;
13685;SDS011;6915;48.296;8.874;2022-10-19T00:35:48;4.07;;;3.17;;
13685;SDS011;6915;48.296;8.874;2022-10-19T00:38:15;7.13;;;3.40;;
13685;SDS011;6915;48.296;8.874;2022-10-19T00:40:46;6.77;;;3.57;;
13685;SDS011;6915;48.296;8.874;2022-10-19T00:43:14;5.40;;;3.20;;
13685;SDS011;6915;48.296;8.874;2022-10-19T00:45:41;3.67;;;3.00;;
13685;SDS011;6915;48.296;8.874;2022-10-19T00:48:09;4.43;;;3.20;;
13685;SDS011;6915;48.296;8.874;2022-10-19T00:50:38;4.80;;;3.17;;
13685;SDS011;6915;48.296;8.874;2022-10-19T00:53:06;3.77;;;3.17;;
13685;SDS011;6915;48.296;8.874;2022-10-19T00:55:33;4.93;;;3.50;;
13685;SDS011;6915;48.296;8.874;2022-10-19T00:58:02;3.93;;;3.47;;
13685;SDS011;6915;48.296;8.874;2022-10-19T01:00:29;4.00;;;3.33;;
13685;SDS011;6915;48.296;8.874;2022-10-19T01:02:58;3.27;;;3.00;;
13685;SDS011;6915;48.296;8.874;2022-10-19T01:05:26;4.60;;;3.07;;
13685;SDS011;6915;48.296;8.874;2022-10-19T01:07:53;3.83;;;3.30;;
13685;SDS011;6915;48.296;8.874;2022-10-19T01:10:35;5.70;;;3.30;;
13685;SDS011;6915;48.296;8.874;2022-10-19T01:13:13;3.37;;;3.10;;
13685;SDS011;6915;48.296;8.874;2022-10-19T01:15:54;4.03;;;3.67;;
13685;SDS011;6915;48.296;8.874;2022-10-19T01:18:30;7.30;;;4.30;;
13685;SDS011;6915;48.296;8.874;2022-10-19T01:21:08;8.53;;;4.20;;
13685;SDS011;6915;48.296;8.874;2022-10-19T01:29:57;4.57;;;3.73;;
13685;SDS011;6915;48.296;8.874;2022-10-19T01:32:33;5.33;;;3.97;;
13685;SDS011;6915;48.296;8.874;2022-10-19T01:35:10;4.90;;;3.63;;
13685;SDS011;6915;48.296;8.874;2022-10-19T01:37:45;4.57;;;3.77;;
13685;SDS011;6915;48.296;8.874;2022-10-19T01:40:17;5.10;;;4.10;;
13685;SDS011;6915;48.296;8.874;2022-10-19T01:42:54;5.17;;;4.00;;
13685;SDS011;6915;48.296;8.874;2022-10-19T01:45:29;6.60;;;4.07;;
13685;SDS011;6915;48.296;8.874;2022-10-19T01:48:02;5.33;;;4.43;;
13685;SDS011;6915;48.296;8.874;2022-10-19T01:50:32;5.20;;;4.60;;
13685;SDS011;6915;48.296;8.874;2022-10-19T01:53:04;6.20;;;4.80;;
13685;SDS011;6915;48.296;8.874;2022-10-19T01:55:33;7.47;;;5.10;;
13685;SDS011;6915;48.296;8.874;2022-10-19T01:58:04;7.30;;;4.13;;
13685;SDS011;6915;48.296;8.874;2022-10-19T02:00:36;4.80;;;4.30;;
13685;SDS011;6915;48.296;8.874;2022-10-19T02:03:06;4.67;;;4.00;;
13685;SDS011;6915;48.296;8.874;2022-10-19T02:05:34;6.03;;;4.23;;
13685;SDS011;6915;48.296;8.874;2022-10-19T02:08:04;7.20;;;4.30;;
13685;SDS011;6915;48.296;8.874;2022-10-19T02:10:36;8.93;;;5.10;;
13685;SDS011;6915;48.296;8.874;2022-10-19T02:13:04;12.00;;;5.20;;
13685;SDS011;6915;48.296;8.874;2022-10-19T02:15:35;8.33;;;5.07;;
13685;SDS011;6915;48.296;8.874;2022-10-19T02:18:04;5.00;;;4.50;;
13685;SDS011;6915;48.296;8.874;2022-10-19T02:20:33;5.93;;;4.60;;
13685;SDS011;6915;48.296;8.874;2022-10-19T02:23:02;7.37;;;4.50;;
13685;SDS011;6915;48.296;8.874;2022-10-19T02:25:29;9.90;;;4.77;;
13685;SDS011;6915;48.296;8.874;2022-10-19T02:27:57;6.63;;;4.50;;
13685;SDS011;6915;48.296;8.874;2022-10-19T02:30:26;6.10;;;4.50;;
13685;SDS011;6915;48.296;8.874;2022-10-19T02:32:54;8.53;;;5.60;;
13685;SDS011;6915;48.296;8.874;2022-10-19T02:35:21;10.00;;;5.10;;
13685;SDS011;6915;48.296;8.874;2022-10-19T02:37:48;8.57;;;5.43;;
13685;SDS011;6915;48.296;8.874;2022-10-19T02:40:15;5.07;;;4.53;;
13685;SDS011;6915;48.296;8.874;2022-10-19T02:42:44;6.60;;;4.60;;
13685;SDS011;6915;48.296;8.874;2022-10-19T02:45:16;8.83;;;4.63;;
13685;SDS011;6915;48.296;8.874;2022-10-19T02:47:48;5.30;;;4.20;;
13685;SDS011;6915;48.296;8.874;2022-10-19T02:50:20;5.57;;;4.07;;
13685;SDS011;6915;48.296;8.874;2022-10-19T02:52:48;8.43;;;4.40;;
13685;SDS011;6915;48.296;8.874;2022-10-19T02:55:15;5.07;;;4.10;;
13685;SDS011;6915;48.296;8.874;2022-10-19T02:57:42;7.37;;;4.23;;
13685;SDS011;6915;48.296;8.874;2022-10-19T03:00:09;5.20;;;4.60;;
13685;SDS011;6915;48.296;8.874;2022-10-19T03:02:37;7.13;;;4.27;;
13685;SDS011;6915;48.296;8.874;2022-10-19T03:05:04;8.53;;;5.73;;
13685;SDS011;6915;48.296;8.874;2022-10-19T03:07:33;13.17;;;5.20;;
13685;SDS011;6915;48.296;8.874;2022-10-19T03:09:59;9.27;;;5.50;;
13685;SDS011;6915;48.296;8.874;2022-10-19T03:12:26;5.80;;;5.20;;
13685;SDS011;6915;48.296;8.874;2022-10-19T03:14:53;6.00;;;5.40;;
13685;SDS011;6915;48.296;8.874;2022-10-19T03:17:20;7.30;;;5.00;;
13685;SDS011;6915;48.296;8.874;2022-10-19T03:19:47;7.30;;;6.13;;
13685;SDS011;6915;48.296;8.874;2022-10-19T03:22:14;5.33;;;4.90;;
13685;SDS011;6915;48.296;8.874;2022-10-19T03:24:42;8.63;;;5.40;;
13685;SDS011;6915;48.296;8.874;2022-10-19T03:27:09;10.20;;;5.57;;
13685;SDS011;6915;48.296;8.874;2022-10-19T03:29:36;9.37;;;4.80;;
13685;SDS011;6915;48.296;8.874;2022-10-19T03:32:03;5.50;;;4.77;;
13685;SDS011;6915;48.296;8.874;2022-10-19T03:34:30;5.77;;;5.17;;
13685;SDS011;6915;48.296;8.874;2022-10-19T03:36:57;5.77;;;5.27;;
13685;SDS011;6915;48.296;8.874;2022-10-19T03:39:24;6.27;;;5.50;;
13685;SDS011;6915;48.296;8.874;2022-10-19T03:41:52;7.97;;;5.43;;
13685;SDS011;6915;48.296;8.874;2022-10-19T03:44:19;6.77;;;5.10;;
13685;SDS011;6915;48.296;8.874;2022-10-19T03:46:46;7.00;;;5.70;;
13685;SDS011;6915;48.296;8.874;2022-10-19T03:49:13;6.10;;;5.20;;
13685;SDS011;6915;48.296;8.874;2022-10-19T03:51:40;5.30;;;4.80;;
13685;SDS011;6915;48.296;8.874;2022-10-19T03:54:08;4.70;;;4.30;;
13685;SDS011;6915;48.296;8.874;2022-10-19T03:56:38;4.13;;;3.80;;
13685;SDS011;6915;48.296;8.874;2022-10-19T03:59:09;4.40;;;4.07;;
13685;SDS011;6915;48.296;8.874;2022-10-19T04:01:39;7.83;;;4.20;;
13685;SDS011;6915;48.296;8.874;2022-10-19T04:04:09;5.30;;;4.80;;
13685;SDS011;6915;48.296;8.874;2022-10-19T04:06:38;4.90;;;4.50;;
13685;SDS011;6915;48.296;8.874;2022-10-19T04:09:06;6.17;;;4.60;;
13685;SDS011;6915;48.296;8.874;2022-10-19T04:11:36;4.90;;;4.47;;
13685;SDS011;6915;48.296;8.874;2022-10-19T04:14:03;4.90;;;4.43;;
13685;SDS011;6915;48.296;8.874;2022-10-19T04:16:31;5.57;;;4.47;;
13685;SDS011;6915;48.296;8.874;2022-10-19T04:18:58;4.00;;;3.70;;
13685;SDS011;6915;48.296;8.874;2022-10-19T04:21:26;4.00;;;3.70;;
13685;SDS011;6915;48.296;8.874;2022-10-19T04:23:56;4.40;;;4.00;;
13685;SDS011;6915;48.296;8.874;2022-10-19T04:26:24;6.20;;;4.10;;
13685;SDS011;6915;48.296;8.874;2022-10-19T04:28:51;4.93;;;4.27;;
13685;SDS011;6915;48.296;8.874;2022-10-19T04:31:18;4.40;;;4.00;;
13685;SDS011;6915;48.296;8.874;2022-10-19T04:33:46;5.33;;;4.40;;
13685;SDS011;6915;48.296;8.874;2022-10-19T04:36:13;5.93;;;4.43;;
13685;SDS011;6915;48.296;8.874;2022-10-19T04:38:40;4.47;;;3.80;;
13685;SDS011;6915;48.296;8.874;2022-10-19T04:41:08;5.37;;;4.20;;
13685;SDS011;6915;48.296;8.874;2022-10-19T04:43:36;5.20;;;3.70;;
13685;SDS011;6915;48.296;8.874;2022-10-19T04:46:04;5.67;;;4.20;;
13685;SDS011;6915;48.296;8.874;2022-10-19T04:48:36;6.50;;;4.80;;
13685;SDS011;6915;48.296;8.874;2022-10-19T04:54:30;8.57;;;5.40;;
13685;SDS011;6915;48.296;8.874;2022-10-19T04:56:57;17.83;;;6.07;;
13685;SDS011;6915;48.296;8.874;2022-10-19T04:59:24;5.53;;;5.03;;
13685;SDS011;6915;48.296;8.874;2022-10-19T05:01:52;7.23;;;5.70;;
13685;SDS011;6915;48.296;8.874;2022-10-19T05:04:19;19.93;;;5.70;;
13685;SDS011;6915;48.296;8.874;2022-10-19T05:06:46;27.53;;;5.90;;
13685;SDS011;6915;48.296;8.874;2022-10-19T05:09:14;29.67;;;6.73;;
13685;SDS011;6915;48.296;8.874;2022-10-19T05:11:42;20.33;;;6.17;;
13685;SDS011;6915;48.296;8.874;2022-10-19T05:14:10;14.90;;;5.70;;
13685;SDS011;6915;48.296;8.874;2022-10-19T05:16:49;10.93;;;6.47;;
13685;SDS011;6915;48.296;8.874;2022-10-19T05:19:17;21.30;;;7.07;;
13685;SDS011;6915;48.296;8.874;2022-10-19T05:21:44;31.80;;;7.50;;
13685;SDS011;6915;48.296;8.874;2022-10-19T05:24:11;13.50;;;6.47;;
13685;SDS011;6915;48.296;8.874;2022-10-19T05:26:39;35.73;;;8.03;;
13685;SDS011;6915;48.296;8.874;2022-10-19T05:29:09;31.50;;;7.27;;
13685;SDS011;6915;48.296;8.874;2022-10-19T05:31:37;13.60;;;7.30;;
13685;SDS011;6915;48.296;8.874;2022-10-19T05:34:04;31.27;;;8.00;;
13685;SDS011;6915;48.296;8.874;2022-10-19T05:36:31;11.10;;;7.20;;
13685;SDS011;6915;48.296;8.874;2022-10-19T05:39:01;10.53;;;7.53;;
13685;SDS011;6915;48.296;8.874;2022-10-19T05:41:30;12.90;;;7.43;;
13685;SDS011;6915;48.296;8.874;2022-10-19T05:43:59;10.87;;;6.70;;
13685;SDS011;6915;48.296;8.874;2022-10-19T05:46:27;10.77;;;7.37;;
13685;SDS011;6915;48.296;8.874;2022-10-19T05:48:56;18.70;;;7.43;;
13685;SDS011;6915;48.296;8.874;2022-10-19T05:51:24;10.30;;;7.10;;
13685;SDS011;6915;48.296;8.874;2022-10-19T05:53:52;20.97;;;7.50;;
13685;SDS011;6915;48.296;8.874;2022-10-19T05:56:21;17.40;;;8.37;;
13685;SDS011;6915;48.296;8.874;2022-10-19T05:58:49;19.73;;;9.30;;
13685;SDS011;6915;48.296;8.874;2022-10-19T06:01:17;17.67;;;9.40;;
13685;SDS011;6915;48.296;8.874;2022-10-19T06:03:45;18.17;;;9.73;;
13685;SDS011;6915;48.296;8.874;2022-10-19T06:06:12;19.87;;;10.00;;
13685;SDS011;6915;48.296;8.874;2022-10-19T06:08:39;29.73;;;12.43;;
13685;SDS011;6915;48.296;8.874;2022-10-19T06:11:07;30.13;;;11.17;;
13685;SDS011;6915;48.296;8.874;2022-10-19T06:13:35;31.07;;;11.20;;
13685;SDS011;6915;48.296;8.874;2022-10-19T06:16:02;24.67;;;11.00;;
13685;SDS011;6915;48.296;8.874;2022-10-19T06:18:32;25.67;;;10.67;;
13685;SDS011;6915;48.296;8.874;2022-10-19T06:21:00;20.33;;;9.47;;
13685;SDS011;6915;48.296;8.874;2022-10-19T06:23:27;26.43;;;9.93;;
13685;SDS011;6915;48.296;8.874;2022-10-19T06:25:54;22.70;;;9.77;;
13685;SDS011;6915;48.296;8.874;2022-10-19T06:28:21;25.80;;;10.20;;
13685;SDS011;6915;48.296;8.874;2022-10-19T06:30:48;24.83;;;11.03;;
13685;SDS011;6915;48.296;8.874;2022-10-19T06:33:15;20.83;;;9.23;;
13685;SDS011;6915;48.296;8.874;2022-10-19T06:35:43;17.00;;;9.10;;
13685;SDS011;6915;48.296;8.874;2022-10-19T06:38:10;20.60;;;9.27;;
13685;SDS011;6915;48.296;8.874;2022-10-19T06:40:38;16.00;;;8.70;;
13685;SDS011;6915;48.296;8.874;2022-10-19T06:43:05;21.23;;;9.40;;
13685;SDS011;6915;48.296;8.874;2022-10-19T06:45:31;16.93;;;8.77;;
13685;SDS011;6915;48.296;8.874;2022-10-19T06:47:58;17.37;;;9.33;;
13685;SDS011;6915;48.296;8.874;2022-10-19T06:50:26;23.77;;;9.87;;
13685;SDS011;6915;48.296;8.874;2022-10-19T06:52:54;28.13;;;10.03;;
13685;SDS011;6915;48.296;8.874;2022-10-19T06:55:21;20.83;;;9.83;;
13685;SDS011;6915;48.296;8.874;2022-10-19T06:57:48;40.93;;;10.27;;
13685;SDS011;6915;48.296;8.874;2022-10-19T07:00:15;32.80;;;11.20;;
13685;SDS011;6915;48.296;8.874;2022-10-19T07:02:42;40.70;;;12.20;;
13685;SDS011;6915;48.296;8.874;2022-10-19T07:05:09;44.73;;;12.37;;
13685;SDS011;6915;48.296;8.874;2022-10-19T07:07:36;49.63;;;12.87;;
13685;SDS011;6915;48.296;8.874;2022-10-19T07:10:04;56.73;;;14.00;;
13685;SDS011;6915;48.296;8.874;2022-10-19T07:12:32;42.87;;;12.67;;
13685;SDS011;6915;48.296;8.874;2022-10-19T07:14:58;41.90;;;11.63;;
13685;SDS011;6915;48.296;8.874;2022-10-19T07:17:25;38.43;;;12.73;;
13685;SDS011;6915;48.296;8.874;2022-10-19T07:19:52;41.70;;;11.97;;
13685;SDS011;6915;48.296;8.874;2022-10-19T07:22:19;34.60;;;11.57;;
13685;SDS011;6915;48.296;8.874;2022-10-19T07:24:46;30.87;;;10.93;;
13685;SDS011;6915;48.296;8.874;2022-10-19T07:27:14;29.10;;;10.20;;
13685;SDS011;6915;48.296;8.874;2022-10-19T07:29:41;18.97;;;9.37;;
13685;SDS011;6915;48.296;8.874;2022-10-19T07:32:08;21.60;;;9.93;;
13685;SDS011;6915;48.296;8.874;2022-10-19T07:34:35;19.17;;;8.83;;
13685;SDS011;6915;48.296;8.874;2022-10-19T07:37:02;16.80;;;8.70;;
13685;SDS011;6915;48.296;8.874;2022-10-19T07:39:29;12.07;;;7.73;;
13685;SDS011;6915;48.296;8.874;2022-10-19T07:41:56;15.67;;;8.47;;
13685;SDS011;6915;48.296;8.874;2022-10-19T07:44:25;15.10;;;8.20;;
13685;SDS011;6915;48.296;8.874;2022-10-19T07:46:52;18.87;;;8.27;;
13685;SDS011;6915;48.296;8.874;2022-10-19T07:49:19;14.93;;;8.43;;
13685;SDS011;6915;48.296;8.874;2022-10-19T07:51:46;21.47;;;8.77;;
13685;SDS011;6915;48.296;8.874;2022-10-19T07:54:17;18.90;;;9.27;;
13685;SDS011;6915;48.296;8.874;2022-10-19T07:56:44;19.57;;;9.67;;
13685;SDS011;6915;48.296;8.874;2022-10-19T07:59:11;23.97;;;10.37;;
13685;SDS011;6915;48.296;8.874;2022-10-19T08:01:41;23.27;;;10.33;;
13685;SDS011;6915;48.296;8.874;2022-10-19T08:04:09;23.23;;;9.97;;
13685;SDS011;6915;48.296;8.874;2022-10-19T08:06:36;20.87;;;9.87;;
13685;SDS011;6915;48.296;8.874;2022-10-19T08:09:03;19.43;;;10.20;;
13685;SDS011;6915;48.296;8.874;2022-10-19T08:11:31;15.80;;;9.87;;
13685;SDS011;6915;48.296;8.874;2022-10-19T08:13:59;17.97;;;11.17;;
13685;SDS011;6915;48.296;8.874;2022-10-19T08:16:28;18.37;;;10.03;;
13685;SDS011;6915;48.296;8.874;2022-10-19T08:19:00;17.07;;;10.70;;
13685;SDS011;6915;48.296;8.874;2022-10-19T08:21:29;15.57;;;10.63;;
13685;SDS011;6915;48.296;8.874;2022-10-19T08:23:56;17.50;;;10.40;;
13685;SDS011;6915;48.296;8.874;2022-10-19T08:26:23;13.13;;;9.90;;
13685;SDS011;6915;48.296;8.874;2022-10-19T08:28:57;15.87;;;10.20;;
13685;SDS011;6915;48.296;8.874;2022-10-19T08:31:24;12.57;;;9.47;;
13685;SDS011;6915;48.296;8.874;2022-10-19T08:33:51;13.67;;;9.60;;
13685;SDS011;6915;48.296;8.874;2022-10-19T08:36:19;15.27;;;9.83;;
13685;SDS011;6915;48.296;8.874;2022-10-19T08:38:46;16.13;;;9.00;;
13685;SDS011;6915;48.296;8.874;2022-10-19T08:41:17;12.40;;;9.90;;
13685;SDS011;6915;48.296;8.874;2022-10-19T08:43:58;15.50;;;10.27;;
13685;SDS011;6915;48.296;8.874;2022-10-19T08:46:45;14.30;;;10.13;;
13685;SDS011;6915;48.296;8.874;2022-10-19T08:49:22;12.67;;;10.27;;
13685;SDS011;6915;48.296;8.874;2022-10-19T08:51:53;12.23;;;9.83;;
13685;SDS011;6915;48.296;8.874;2022-10-19T08:54:24;11.00;;;9.10;;
13685;SDS011;6915;48.296;8.874;2022-10-19T08:57:01;12.83;;;8.90;;
13685;SDS011;6915;48.296;8.874;2022-10-19T08:59:37;10.77;;;8.53;;
13685;SDS011;6915;48.296;8.874;2022-10-19T09:02:11;8.87;;;7.70;;
13685;SDS011;6915;48.296;8.874;2022-10-19T09:04:43;8.30;;;7.03;;
13685;SDS011;6915;48.296;8.874;2022-10-19T09:07:25;8.23;;;7.37;;
13685;SDS011;6915;48.296;8.874;2022-10-19T09:09:54;8.70;;;7.67;;
13685;SDS011;6915;48.296;8.874;2022-10-19T09:12:28;8.10;;;7.30;;
13685;SDS011;6915;48.296;8.874;2022-10-19T09:15:00;7.73;;;7.03;;
13685;SDS011;6915;48.296;8.874;2022-10-19T09:17:29;10.77;;;6.50;;
13685;SDS011;6915;48.296;8.874;2022-10-19T09:19:57;8.27;;;6.50;;
13685;SDS011;6915;48.296;8.874;2022-10-19T09:22:36;7.50;;;6.53;;
13685;SDS011;6915;48.296;8.874;2022-10-19T09:25:07;8.10;;;6.23;;
13685;SDS011;6915;48.296;8.874;2022-10-19T09:27:44;7.30;;;6.37;;
13685;SDS011;6915;48.296;8.874;2022-10-19T09:30:15;7.13;;;6.53;;
13685;SDS011;6915;48.296;8.874;2022-10-19T09:32:44;6.87;;;6.10;;
13685;SDS011;6915;48.296;8.874;2022-10-19T09:35:17;7.20;;;6.50;;
13685;SDS011;6915;48.296;8.874;2022-10-19T09:37:50;7.80;;;7.00;;
13685;SDS011;6915;48.296;8.874;2022-10-19T09:40:20;7.40;;;6.70;;
13685;SDS011;6915;48.296;8.874;2022-10-19T09:42:50;7.40;;;6.57;;
13685;SDS011;6915;48.296;8.874;2022-10-19T09:45:28;8.83;;;6.83;;
13685;SDS011;6915;48.296;8.874;2022-10-19T09:47:59;7.97;;;6.17;;
13685;SDS011;6915;48.296;8.874;2022-10-19T09:50:29;7.13;;;6.43;;
13685;SDS011;6915;48.296;8.874;2022-10-19T09:52:58;8.67;;;6.53;;
13685;SDS011;6915;48.296;8.874;2022-10-19T09:55:33;7.63;;;6.63;;
13685;SDS011;6915;48.296;8.874;2022-10-19T09:58:03;7.60;;;6.83;;
13685;SDS011;6915;48.296;8.874;2022-10-19T10:00:35;7.83;;;7.03;;
13685;SDS011;6915;48.296;8.874;2022-10-19T10:03:04;7.93;;;6.47;;
13685;SDS011;6915;48.296;8.874;2022-10-19T10:05:32;6.97;;;6.30;;
13685;SDS011;6915;48.296;8.874;2022-10-19T10:08:03;7.53;;;6.73;;
13685;SDS011;6915;48.296;8.874;2022-10-19T10:10:41;7.93;;;7.03;;
13685;SDS011;6915;48.296;8.874;2022-10-19T10:13:12;7.13;;;6.43;;
13685;SDS011;6915;48.296;8.874;2022-10-19T10:15:44;7.53;;;6.63;;
13685;SDS011;6915;48.296;8.874;2022-10-19T10:18:15;7.33;;;6.63;;
13685;SDS011;6915;48.296;8.874;2022-10-19T10:20:54;6.93;;;6.33;;
13685;SDS011;6915;48.296;8.874;2022-10-19T10:23:24;7.23;;;6.63;;
13685;SDS011;6915;48.296;8.874;2022-10-19T10:25:56;6.77;;;6.10;;
13685;SDS011;6915;48.296;8.874;2022-10-19T10:28:25;7.80;;;6.83;;
13685;SDS011;6915;48.296;8.874;2022-10-19T10:30:53;7.10;;;6.37;;
13685;SDS011;6915;48.296;8.874;2022-10-19T10:33:25;7.27;;;6.10;;
13685;SDS011;6915;48.296;8.874;2022-10-19T10:35:55;7.60;;;6.10;;
13685;SDS011;6915;48.296;8.874;2022-10-19T10:38:29;7.33;;;6.53;;
13685;SDS011;6915;48.296;8.874;2022-10-19T10:40:59;7.13;;;6.43;;
13685;SDS011;6915;48.296;8.874;2022-10-19T10:43:32;7.33;;;6.20;;
13685;SDS011;6915;48.296;8.874;2022-10-19T10:46:00;6.80;;;6.20;;
13685;SDS011;6915;48.296;8.874;2022-10-19T10:48:31;7.27;;;6.27;;
13685;SDS011;6915;48.296;8.874;2022-10-19T10:51:02;6.77;;;6.17;;
13685;SDS011;6915;48.296;8.874;2022-10-19T10:53:45;6.90;;;6.20;;
13685;SDS011;6915;48.296;8.874;2022-10-19T10:56:23;7.73;;;6.60;;
13685;SDS011;6915;48.296;8.874;2022-10-19T10:58:54;6.50;;;5.97;;
13685;SDS011;6915;48.296;8.874;2022-10-19T11:01:26;8.13;;;6.03;;
13685;SDS011;6915;48.296;8.874;2022-10-19T11:03:59;6.13;;;5.53;;
13685;SDS011;6915;48.296;8.874;2022-10-19T11:06:29;7.80;;;5.90;;
13685;SDS011;6915;48.296;8.874;2022-10-19T11:09:05;6.60;;;6.00;;
13685;SDS011;6915;48.296;8.874;2022-10-19T11:11:36;6.80;;;6.10;;
13685;SDS011;6915;48.296;8.874;2022-10-19T11:14:09;7.97;;;6.43;;
13685;SDS011;6915;48.296;8.874;2022-10-19T11:16:54;6.90;;;6.20;;
13685;SDS011;6915;48.296;8.874;2022-10-19T11:19:26;6.70;;;6.10;;
13685;SDS011;6915;48.296;8.874;2022-10-19T11:21:59;6.43;;;5.83;;
13685;SDS011;6915;48.296;8.874;2022-10-19T11:24:37;6.17;;;5.67;;
13685;SDS011;6915;48.296;8.874;2022-10-19T11:27:17;6.30;;;5.80;;
13685;SDS011;6915;48.296;8.874;2022-10-19T11:30:06;7.30;;;6.30;;
13685;SDS011;6915;48.296;8.874;2022-10-19T11:32:44;6.60;;;6.00;;
13685;SDS011;6915;48.296;8.874;2022-10-19T11:35:28;6.17;;;5.67;;
13685;SDS011;6915;48.296;8.874;2022-10-19T11:38:09;6.40;;;5.80;;
13685;SDS011;6915;48.296;8.874;2022-10-19T11:41:03;6.47;;;5.47;;
13685;SDS011;6915;48.296;8.874;2022-10-19T11:43:41;6.23;;;5.73;;
13685;SDS011;6915;48.296;8.874;2022-10-19T11:46:16;5.80;;;5.30;;
13685;SDS011;6915;48.296;8.874;2022-10-19T11:48:53;8.65;;;5.50;;
13685;SDS011;6915;48.296;8.874;2022-10-19T11:51:30;6.13;;;5.50;;
13685;SDS011;6915;48.296;8.874;2022-10-19T11:54:09;5.53;;;5.03;;
13685;SDS011;6915;48.296;8.874;2022-10-19T11:56:48;6.40;;;4.77;;
13685;SDS011;6915;48.296;8.874;2022-10-19T11:59:22;6.00;;;5.40;;
13685;SDS011;6915;48.296;8.874;2022-10-19T12:02:00;4.30;;;3.90;;
13685;SDS011;6915;48.296;8.874;2022-10-19T12:04:44;3.60;;;3.23;;
13685;SDS011;6915;48.296;8.874;2022-10-19T12:07:25;3.33;;;2.70;;
13685;SDS011;6915;48.296;8.874;2022-10-19T12:10:12;3.23;;;3.00;;
13685;SDS011;6915;48.296;8.874;2022-10-19T12:12:48;2.87;;;2.67;;
13685;SDS011;6915;48.296;8.874;2022-10-19T12:15:23;3.43;;;3.13;;
13685;SDS011;6915;48.296;8.874;2022-10-19T12:17:56;3.60;;;3.30;;
13685;SDS011;6915;48.296;8.874;2022-10-19T12:20:28;6.30;;;3.53;;
13685;SDS011;6915;48.296;8.874;2022-10-19T12:23:00;4.37;;;3.73;;
13685;SDS011;6915;48.296;8.874;2022-10-19T12:25:41;4.10;;;3.67;;
13685;SDS011;6915;48.296;8.874;2022-10-19T12:28:15;4.43;;;3.50;;
13685;SDS011;6915;48.296;8.874;2022-10-19T12:30:47;5.65;;;3.42;;
13685;SDS011;6915;48.296;8.874;2022-10-19T12:33:16;5.30;;;2.93;;
13685;SDS011;6915;48.296;8.874;2022-10-19T12:35:53;3.40;;;3.10;;
13685;SDS011;6915;48.296;8.874;2022-10-19T12:38:27;4.68;;;3.40;;
13685;SDS011;6915;48.296;8.874;2022-10-19T12:41:02;4.10;;;3.40;;
13685;SDS011;6915;48.296;8.874;2022-10-19T12:43:37;3.73;;;3.43;;
13685;SDS011;6915;48.296;8.874;2022-10-19T12:46:12;5.20;;;4.27;;
13685;SDS011;6915;48.296;8.874;2022-10-19T12:51:47;4.70;;;4.30;;
13685;SDS011;6915;48.296;8.874;2022-10-19T12:54:14;4.50;;;4.10;;
13685;SDS011;6915;48.296;8.874;2022-10-19T12:56:45;5.37;;;4.60;;
13685;SDS011;6915;48.296;8.874;2022-10-19T12:59:21;5.93;;;4.63;;
13685;SDS011;6915;48.296;8.874;2022-10-19T13:01:57;4.97;;;4.50;;
13685;SDS011;6915;48.296;8.874;2022-10-19T13:23:48;5.63;;;4.23;;
13685;SDS011;6915;48.296;8.874;2022-10-19T13:35:30;6.30;;;5.70;;
13685;SDS011;6915;48.296;8.874;2022-10-19T13:41:09;9.73;;;6.13;;
13685;SDS011;6915;48.296;8.874;2022-10-19T13:43:40;7.67;;;6.87;;
13685;SDS011;6915;48.296;8.874;2022-10-19T13:49:23;6.87;;;6.27;;
13685;SDS011;6915;48.296;8.874;2022-10-19T13:52:15;7.37;;;6.57;;
13685;SDS011;6915;48.296;8.874;2022-10-19T13:58:00;7.10;;;6.10;;
13685;SDS011;6915;48.296;8.874;2022-10-19T14:00:59;6.73;;;5.87;;
13685;SDS011;6915;48.296;8.874;2022-10-19T14:03:49;7.27;;;5.80;;
13685;SDS011;6915;48.296;8.874;2022-10-19T14:06:26;6.70;;;6.10;;
13685;SDS011;6915;48.296;8.874;2022-10-19T14:09:04;6.70;;;6.00;;
13685;SDS011;6915;48.296;8.874;2022-10-19T14:11:45;6.97;;;5.67;;
13685;SDS011;6915;48.296;8.874;2022-10-19T14:14:17;7.03;;;6.40;;
13685;SDS011;6915;48.296;8.874;2022-10-19T14:16:47;6.37;;;5.77;;
13685;SDS011;6915;48.296;8.874;2022-10-19T14:19:23;6.80;;;5.77;;
13685;SDS011;6915;48.296;8.874;2022-10-19T14:21:53;5.83;;;5.30;;
13685;SDS011;6915;48.296;8.874;2022-10-19T14:24:29;6.17;;;5.47;;
13685;SDS011;6915;48.296;8.874;2022-10-19T14:27:00;6.63;;;5.60;;
13685;SDS011;6915;48.296;8.874;2022-10-19T14:29:32;7.20;;;6.50;;
13685;SDS011;6915;48.296;8.874;2022-10-19T14:32:08;9.57;;;6.23;;
13685;SDS011;6915;48.296;8.874;2022-10-19T14:34:37;6.20;;;5.60;;
13685;SDS011;6915;48.296;8.874;2022-10-19T14:37:08;8.37;;;6.60;;
13685;SDS011;6915;48.296;8.874;2022-10-19T14:39:41;7.63;;;6.27;;
13685;SDS011;6915;48.296;8.874;2022-10-19T14:42:08;7.60;;;5.97;;
13685;SDS011;6915;48.296;8.874;2022-10-19T14:44:40;7.47;;;5.60;;
13685;SDS011;6915;48.296;8.874;2022-10-19T14:47:14;6.80;;;5.90;;
13685;SDS011;6915;48.296;8.874;2022-10-19T14:49:43;6.53;;;5.23;;
13685;SDS011;6915;48.296;8.874;2022-10-19T14:52:10;7.70;;;5.47;;
13685;SDS011;6915;48.296;8.874;2022-10-19T14:54:42;6.50;;;5.80;;
13685;SDS011;6915;48.296;8.874;2022-10-19T14:57:11;6.17;;;5.20;;
13685;SDS011;6915;48.296;8.874;2022-10-19T14:59:43;6.63;;;5.00;;
13685;SDS011;6915;48.296;8.874;2022-10-19T15:02:14;8.63;;;5.50;;
13685;SDS011;6915;48.296;8.874;2022-10-19T15:04:44;6.50;;;5.73;;
13685;SDS011;6915;48.296;8.874;2022-10-19T15:07:16;7.73;;;5.40;;
13685;SDS011;6915;48.296;8.874;2022-10-19T15:09:48;8.33;;;6.03;;
13685;SDS011;6915;48.296;8.874;2022-10-19T15:12:21;9.23;;;7.47;;
13685;SDS011;6915;48.296;8.874;2022-10-19T15:14:53;7.80;;;7.00;;
13685;SDS011;6915;48.296;8.874;2022-10-19T15:17:26;7.77;;;6.70;;
13685;SDS011;6915;48.296;8.874;2022-10-19T15:19:57;7.40;;;6.40;;
13685;SDS011;6915;48.296;8.874;2022-10-19T15:22:36;6.10;;;5.50;;
13685;SDS011;6915;48.296;8.874;2022-10-19T15:25:27;7.23;;;5.77;;
13685;SDS011;6915;48.296;8.874;2022-10-19T15:28:16;10.83;;;8.60;;
13685;SDS011;6915;48.296;8.874;2022-10-19T15:30:57;6.60;;;5.90;;
13685;SDS011;6915;48.296;8.874;2022-10-19T15:33:25;6.40;;;5.80;;
13685;SDS011;6915;48.296;8.874;2022-10-19T15:36:02;6.43;;;5.77;;
13685;SDS011;6915;48.296;8.874;2022-10-19T15:38:30;6.43;;;5.87;;
13685;SDS011;6915;48.296;8.874;2022-10-19T15:40:59;6.80;;;5.40;;
13685;SDS011;6915;48.296;8.874;2022-10-19T15:43:34;6.43;;;5.83;;
13685;SDS011;6915;48.296;8.874;2022-10-19T15:46:05;5.67;;;5.07;;
13685;SDS011;6915;48.296;8.874;2022-10-19T15:48:43;5.63;;;5.17;;
13685;SDS011;6915;48.296;8.874;2022-10-19T15:54:03;7.90;;;5.13;;
13685;SDS011;6915;48.296;8.874;2022-10-19T15:56:32;5.77;;;5.27;;
13685;SDS011;6915;48.296;8.874;2022-10-19T15:59:01;5.57;;;5.13;;
13685;SDS011;6915;48.296;8.874;2022-10-19T16:01:31;5.70;;;5.20;;
13685;SDS011;6915;48.296;8.874;2022-10-19T16:03:58;5.33;;;4.93;;
13685;SDS011;6915;48.296;8.874;2022-10-19T16:06:27;6.57;;;4.70;;
13685;SDS011;6915;48.296;8.874;2022-10-19T16:08:56;5.83;;;5.17;;
13685;SDS011;6915;48.296;8.874;2022-10-19T16:11:23;7.10;;;5.40;;